sensor_id;sensor_type;location;lat;lon;timestamp;P1;durP1;ratioP1;P2;durP2;ratioP2
63016;SDS011;50274;45.640;11.756;2023-06-10T00:01:50;11.98;;;9.30;;
63016;SDS011;50274;45.640;11.756;2023-06-10T00:04:16;12.20;;;8.35;;
63016;SDS011;50274;45.640;11.756;2023-06-10T00:06:43;11.35;;;8.98;;
63016;SDS011;50274;45.640;11.756;2023-06-10T00:09:09;10.85;;;8.48;;
63016;SDS011;50274;45.640;11.756;2023-06-10T00:11:39;11.43;;;9.10;;
63016;SDS011;50274;45.640;11.756;2023-06-10T00:14:05;11.82;;;9.00;;
63016;SDS011;50274;45.640;11.756;2023-06-10T00:16:31;11.50;;;8.82;;
63016;SDS011;50274;45.640;11.756;2023-06-10T00:18:58;10.43;;;8.50;;
63016;SDS011;50274;45.640;11.756;2023-06-10T00:21:26;10.35;;;8.25;;
63016;SDS011;50274;45.640;11.756;2023-06-10T00:23:52;11.73;;;9.30;;
63016;SDS011;50274;45.640;11.756;2023-06-10T00:26:20;11.07;;;9.15;;
63016;SDS011;50274;45.640;11.756;2023-06-10T00:28:49;11.73;;;9.50;;
63016;SDS011;50274;45.640;11.756;2023-06-10T00:31:15;12.95;;;9.07;;
63016;SDS011;50274;45.640;11.756;2023-06-10T00:33:42;10.80;;;8.73;;
63016;SDS011;50274;45.640;11.756;2023-06-10T00:36:08;12.70;;;9.43;;
63016;SDS011;50274;45.640;11.756;2023-06-10T00:38:34;11.57;;;9.55;;
63016;SDS011;50274;45.640;11.756;2023-06-10T00:41:00;12.27;;;9.65;;
63016;SDS011;50274;45.640;11.756;2023-06-10T00:43:26;12.03;;;9.63;;
63016;SDS011;50274;45.640;11.756;2023-06-10T00:45:51;11.68;;;9.25;;
63016;SDS011;50274;45.640;11.756;2023-06-10T00:48:18;13.20;;;9.50;;
63016;SDS011;50274;45.640;11.756;2023-06-10T00:50:47;13.65;;;11.73;;
63016;SDS011;50274;45.640;11.756;2023-06-10T00:53:13;14.43;;;10.90;;
63016;SDS011;50274;45.640;11.756;2023-06-10T00:55:40;13.70;;;11.13;;
63016;SDS011;50274;45.640;11.756;2023-06-10T00:58:06;15.95;;;14.07;;
63016;SDS011;50274;45.640;11.756;2023-06-10T01:00:32;15.10;;;11.55;;
63016;SDS011;50274;45.640;11.756;2023-06-10T01:02:58;15.37;;;12.53;;
63016;SDS011;50274;45.640;11.756;2023-06-10T01:05:24;13.80;;;11.60;;
63016;SDS011;50274;45.640;11.756;2023-06-10T01:07:56;15.25;;;12.02;;
63016;SDS011;50274;45.640;11.756;2023-06-10T01:10:31;14.27;;;12.13;;
63016;SDS011;50274;45.640;11.756;2023-06-10T01:13:06;15.37;;;11.50;;
63016;SDS011;50274;45.640;11.756;2023-06-10T01:15:36;14.95;;;12.43;;
63016;SDS011;50274;45.640;11.756;2023-06-10T01:18:07;17.17;;;13.25;;
63016;SDS011;50274;45.640;11.756;2023-06-10T01:20:35;16.80;;;14.32;;
63016;SDS011;50274;45.640;11.756;2023-06-10T01:23:05;17.13;;;14.00;;
63016;SDS011;50274;45.640;11.756;2023-06-10T01:25:31;15.83;;;12.80;;
63016;SDS011;50274;45.640;11.756;2023-06-10T01:28:02;16.50;;;13.32;;
63016;SDS011;50274;45.640;11.756;2023-06-10T01:33:12;15.98;;;13.00;;
63016;SDS011;50274;45.640;11.756;2023-06-10T01:35:42;20.92;;;17.02;;
63016;SDS011;50274;45.640;11.756;2023-06-10T01:38:10;18.47;;;15.57;;
63016;SDS011;50274;45.640;11.756;2023-06-10T01:40:37;20.35;;;16.23;;
63016;SDS011;50274;45.640;11.756;2023-06-10T01:43:04;16.58;;;13.02;;
63016;SDS011;50274;45.640;11.756;2023-06-10T01:45:29;18.67;;;13.77;;
63016;SDS011;50274;45.640;11.756;2023-06-10T01:47:55;16.57;;;13.93;;
63016;SDS011;50274;45.640;11.756;2023-06-10T01:50:21;17.00;;;14.18;;
63016;SDS011;50274;45.640;11.756;2023-06-10T01:52:47;16.27;;;13.10;;
63016;SDS011;50274;45.640;11.756;2023-06-10T01:55:13;18.10;;;13.87;;
63016;SDS011;50274;45.640;11.756;2023-06-10T01:57:39;16.60;;;13.23;;
63016;SDS011;50274;45.640;11.756;2023-06-10T02:00:05;17.67;;;13.75;;
63016;SDS011;50274;45.640;11.756;2023-06-10T02:02:31;18.42;;;14.00;;
63016;SDS011;50274;45.640;11.756;2023-06-10T02:04:57;17.97;;;15.50;;
63016;SDS011;50274;45.640;11.756;2023-06-10T02:07:23;17.50;;;13.63;;
63016;SDS011;50274;45.640;11.756;2023-06-10T02:09:48;16.50;;;12.73;;
63016;SDS011;50274;45.640;11.756;2023-06-10T02:12:14;18.08;;;13.27;;
63016;SDS011;50274;45.640;11.756;2023-06-10T02:14:40;18.63;;;13.97;;
63016;SDS011;50274;45.640;11.756;2023-06-10T02:17:06;16.70;;;13.05;;
63016;SDS011;50274;45.640;11.756;2023-06-10T02:19:32;16.38;;;13.18;;
63016;SDS011;50274;45.640;11.756;2023-06-10T02:22:01;17.25;;;12.45;;
63016;SDS011;50274;45.640;11.756;2023-06-10T02:24:27;20.25;;;15.10;;
63016;SDS011;50274;45.640;11.756;2023-06-10T02:26:53;20.30;;;14.80;;
63016;SDS011;50274;45.640;11.756;2023-06-10T02:29:19;18.98;;;13.68;;
63016;SDS011;50274;45.640;11.756;2023-06-10T02:31:45;17.05;;;12.95;;
63016;SDS011;50274;45.640;11.756;2023-06-10T02:34:11;17.10;;;14.03;;
63016;SDS011;50274;45.640;11.756;2023-06-10T02:36:36;18.52;;;14.40;;
63016;SDS011;50274;45.640;11.756;2023-06-10T02:39:02;15.77;;;12.57;;
63016;SDS011;50274;45.640;11.756;2023-06-10T02:41:29;19.48;;;14.65;;
63016;SDS011;50274;45.640;11.756;2023-06-10T02:43:55;18.02;;;14.38;;
63016;SDS011;50274;45.640;11.756;2023-06-10T02:46:21;17.03;;;14.07;;
63016;SDS011;50274;45.640;11.756;2023-06-10T02:48:46;15.57;;;12.95;;
63016;SDS011;50274;45.640;11.756;2023-06-10T02:51:14;16.52;;;12.38;;
63016;SDS011;50274;45.640;11.756;2023-06-10T02:53:40;17.53;;;13.00;;
63016;SDS011;50274;45.640;11.756;2023-06-10T02:56:05;15.45;;;12.63;;
63016;SDS011;50274;45.640;11.756;2023-06-10T02:58:31;15.40;;;11.93;;
63016;SDS011;50274;45.640;11.756;2023-06-10T03:00:57;16.00;;;11.85;;
63016;SDS011;50274;45.640;11.756;2023-06-10T03:03:23;16.83;;;11.93;;
63016;SDS011;50274;45.640;11.756;2023-06-10T03:05:50;15.98;;;12.30;;
63016;SDS011;50274;45.640;11.756;2023-06-10T03:08:16;14.50;;;11.50;;
63016;SDS011;50274;45.640;11.756;2023-06-10T03:10:42;13.90;;;11.10;;
63016;SDS011;50274;45.640;11.756;2023-06-10T03:13:08;14.60;;;11.03;;
63016;SDS011;50274;45.640;11.756;2023-06-10T03:15:35;15.05;;;11.65;;
63016;SDS011;50274;45.640;11.756;2023-06-10T03:18:01;15.52;;;11.95;;
63016;SDS011;50274;45.640;11.756;2023-06-10T03:20:27;17.15;;;13.48;;
63016;SDS011;50274;45.640;11.756;2023-06-10T03:22:53;18.05;;;14.27;;
63016;SDS011;50274;45.640;11.756;2023-06-10T03:25:19;14.87;;;12.27;;
63016;SDS011;50274;45.640;11.756;2023-06-10T03:27:46;16.52;;;12.85;;
63016;SDS011;50274;45.640;11.756;2023-06-10T03:30:12;14.77;;;12.27;;
63016;SDS011;50274;45.640;11.756;2023-06-10T03:32:39;16.75;;;12.45;;
63016;SDS011;50274;45.640;11.756;2023-06-10T03:35:06;17.45;;;13.73;;
63016;SDS011;50274;45.640;11.756;2023-06-10T03:37:32;16.93;;;12.47;;
63016;SDS011;50274;45.640;11.756;2023-06-10T03:39:58;20.25;;;13.43;;
63016;SDS011;50274;45.640;11.756;2023-06-10T03:42:24;16.20;;;12.75;;
63016;SDS011;50274;45.640;11.756;2023-06-10T03:44:50;17.67;;;13.97;;
63016;SDS011;50274;45.640;11.756;2023-06-10T03:47:15;18.25;;;14.70;;
63016;SDS011;50274;45.640;11.756;2023-06-10T03:49:41;16.67;;;13.27;;
63016;SDS011;50274;45.640;11.756;2023-06-10T03:52:07;18.07;;;13.03;;
63016;SDS011;50274;45.640;11.756;2023-06-10T03:54:33;18.98;;;13.95;;
63016;SDS011;50274;45.640;11.756;2023-06-10T03:57:01;18.27;;;14.07;;
63016;SDS011;50274;45.640;11.756;2023-06-10T03:59:28;18.37;;;14.47;;
63016;SDS011;50274;45.640;11.756;2023-06-10T04:01:54;18.58;;;14.25;;
63016;SDS011;50274;45.640;11.756;2023-06-10T04:04:20;20.48;;;16.13;;
63016;SDS011;50274;45.640;11.756;2023-06-10T04:06:45;19.60;;;14.97;;
63016;SDS011;50274;45.640;11.756;2023-06-10T04:09:12;19.38;;;15.50;;
63016;SDS011;50274;45.640;11.756;2023-06-10T04:11:37;22.08;;;16.35;;
63016;SDS011;50274;45.640;11.756;2023-06-10T04:14:03;20.57;;;15.83;;
63016;SDS011;50274;45.640;11.756;2023-06-10T04:16:29;22.77;;;15.85;;
63016;SDS011;50274;45.640;11.756;2023-06-10T04:18:55;19.85;;;15.35;;
63016;SDS011;50274;45.640;11.756;2023-06-10T04:21:21;18.23;;;14.70;;
63016;SDS011;50274;45.640;11.756;2023-06-10T04:23:47;19.90;;;15.10;;
63016;SDS011;50274;45.640;11.756;2023-06-10T04:26:13;20.77;;;14.82;;
63016;SDS011;50274;45.640;11.756;2023-06-10T04:28:39;20.83;;;16.70;;
63016;SDS011;50274;45.640;11.756;2023-06-10T04:31:05;19.27;;;14.65;;
63016;SDS011;50274;45.640;11.756;2023-06-10T04:33:31;20.80;;;16.17;;
63016;SDS011;50274;45.640;11.756;2023-06-10T04:35:56;18.87;;;13.77;;
63016;SDS011;50274;45.640;11.756;2023-06-10T04:38:22;18.55;;;15.05;;
63016;SDS011;50274;45.640;11.756;2023-06-10T04:40:49;19.77;;;15.88;;
63016;SDS011;50274;45.640;11.756;2023-06-10T04:43:14;19.07;;;15.70;;
63016;SDS011;50274;45.640;11.756;2023-06-10T04:45:41;23.08;;;15.10;;
63016;SDS011;50274;45.640;11.756;2023-06-10T04:48:10;19.60;;;16.05;;
63016;SDS011;50274;45.640;11.756;2023-06-10T04:50:36;19.70;;;14.90;;
63016;SDS011;50274;45.640;11.756;2023-06-10T04:53:02;18.77;;;15.05;;
63016;SDS011;50274;45.640;11.756;2023-06-10T04:55:28;19.57;;;16.00;;
63016;SDS011;50274;45.640;11.756;2023-06-10T04:57:54;20.05;;;16.05;;
63016;SDS011;50274;45.640;11.756;2023-06-10T05:00:20;25.40;;;19.70;;
63016;SDS011;50274;45.640;11.756;2023-06-10T05:02:46;18.95;;;14.20;;
63016;SDS011;50274;45.640;11.756;2023-06-10T05:05:15;21.08;;;16.45;;
63016;SDS011;50274;45.640;11.756;2023-06-10T05:07:42;19.93;;;15.97;;
63016;SDS011;50274;45.640;11.756;2023-06-10T05:10:08;18.77;;;15.68;;
63016;SDS011;50274;45.640;11.756;2023-06-10T05:12:34;18.63;;;14.95;;
63016;SDS011;50274;45.640;11.756;2023-06-10T05:15:00;17.37;;;14.23;;
63016;SDS011;50274;45.640;11.756;2023-06-10T05:17:26;16.20;;;13.18;;
63016;SDS011;50274;45.640;11.756;2023-06-10T05:19:53;19.80;;;15.38;;
63016;SDS011;50274;45.640;11.756;2023-06-10T05:22:19;22.55;;;16.50;;
63016;SDS011;50274;45.640;11.756;2023-06-10T05:24:45;19.73;;;14.60;;
63016;SDS011;50274;45.640;11.756;2023-06-10T05:27:10;19.48;;;13.88;;
63016;SDS011;50274;45.640;11.756;2023-06-10T05:29:37;19.20;;;13.35;;
63016;SDS011;50274;45.640;11.756;2023-06-10T05:32:03;16.47;;;12.37;;
63016;SDS011;50274;45.640;11.756;2023-06-10T05:34:30;19.02;;;13.95;;
63016;SDS011;50274;45.640;11.756;2023-06-10T05:37:09;17.08;;;14.40;;
63016;SDS011;50274;45.640;11.756;2023-06-10T05:39:35;16.30;;;13.27;;
63016;SDS011;50274;45.640;11.756;2023-06-10T05:42:05;15.70;;;11.80;;
63016;SDS011;50274;45.640;11.756;2023-06-10T05:44:32;14.15;;;11.07;;
63016;SDS011;50274;45.640;11.756;2023-06-10T05:46:58;13.73;;;10.55;;
63016;SDS011;50274;45.640;11.756;2023-06-10T05:49:24;12.20;;;9.35;;
63016;SDS011;50274;45.640;11.756;2023-06-10T05:51:50;12.77;;;9.30;;
63016;SDS011;50274;45.640;11.756;2023-06-10T05:54:17;11.82;;;8.35;;
63016;SDS011;50274;45.640;11.756;2023-06-10T05:56:43;10.68;;;8.00;;
63016;SDS011;50274;45.640;11.756;2023-06-10T05:59:09;10.15;;;6.78;;
63016;SDS011;50274;45.640;11.756;2023-06-10T06:01:35;9.10;;;6.30;;
63016;SDS011;50274;45.640;11.756;2023-06-10T06:04:01;8.77;;;6.35;;
63016;SDS011;50274;45.640;11.756;2023-06-10T06:06:27;9.73;;;6.35;;
63016;SDS011;50274;45.640;11.756;2023-06-10T06:08:53;9.60;;;6.45;;
63016;SDS011;50274;45.640;11.756;2023-06-10T06:11:19;8.50;;;6.23;;
63016;SDS011;50274;45.640;11.756;2023-06-10T06:13:44;10.15;;;6.43;;
63016;SDS011;50274;45.640;11.756;2023-06-10T06:16:10;8.77;;;6.50;;
63016;SDS011;50274;45.640;11.756;2023-06-10T06:18:36;10.00;;;6.68;;
63016;SDS011;50274;45.640;11.756;2023-06-10T06:21:02;9.80;;;6.67;;
63016;SDS011;50274;45.640;11.756;2023-06-10T06:23:28;8.93;;;6.00;;
63016;SDS011;50274;45.640;11.756;2023-06-10T06:25:53;7.35;;;5.43;;
63016;SDS011;50274;45.640;11.756;2023-06-10T06:28:19;8.10;;;6.37;;
63016;SDS011;50274;45.640;11.756;2023-06-10T06:30:47;8.57;;;5.90;;
63016;SDS011;50274;45.640;11.756;2023-06-10T06:33:13;9.38;;;6.70;;
63016;SDS011;50274;45.640;11.756;2023-06-10T06:35:39;8.15;;;5.43;;
63016;SDS011;50274;45.640;11.756;2023-06-10T06:38:05;9.00;;;5.73;;
63016;SDS011;50274;45.640;11.756;2023-06-10T06:40:31;9.23;;;6.28;;
63016;SDS011;50274;45.640;11.756;2023-06-10T06:42:57;8.55;;;5.45;;
63016;SDS011;50274;45.640;11.756;2023-06-10T06:45:22;9.33;;;5.57;;
63016;SDS011;50274;45.640;11.756;2023-06-10T06:47:48;9.45;;;6.28;;
63016;SDS011;50274;45.640;11.756;2023-06-10T06:50:14;10.05;;;6.05;;
63016;SDS011;50274;45.640;11.756;2023-06-10T06:52:41;9.05;;;6.32;;
63016;SDS011;50274;45.640;11.756;2023-06-10T06:55:07;10.67;;;6.43;;
63016;SDS011;50274;45.640;11.756;2023-06-10T06:57:33;9.68;;;6.60;;
63016;SDS011;50274;45.640;11.756;2023-06-10T06:59:59;8.80;;;6.40;;
63016;SDS011;50274;45.640;11.756;2023-06-10T07:02:24;9.37;;;6.93;;
63016;SDS011;50274;45.640;11.756;2023-06-10T07:04:50;9.00;;;6.30;;
63016;SDS011;50274;45.640;11.756;2023-06-10T07:07:16;11.30;;;6.27;;
63016;SDS011;50274;45.640;11.756;2023-06-10T07:09:42;9.55;;;6.78;;
63016;SDS011;50274;45.640;11.756;2023-06-10T07:12:08;9.85;;;7.18;;
63016;SDS011;50274;45.640;11.756;2023-06-10T07:14:34;8.20;;;5.50;;
63016;SDS011;50274;45.640;11.756;2023-06-10T07:17:00;9.17;;;6.23;;
63016;SDS011;50274;45.640;11.756;2023-06-10T07:19:26;9.88;;;6.63;;
63016;SDS011;50274;45.640;11.756;2023-06-10T07:21:51;9.57;;;6.33;;
63016;SDS011;50274;45.640;11.756;2023-06-10T07:24:17;9.13;;;5.95;;
63016;SDS011;50274;45.640;11.756;2023-06-10T07:26:45;11.68;;;6.55;;
63016;SDS011;50274;45.640;11.756;2023-06-10T07:29:10;10.87;;;6.93;;
63016;SDS011;50274;45.640;11.756;2023-06-10T07:31:36;10.98;;;8.60;;
63016;SDS011;50274;45.640;11.756;2023-06-10T07:34:02;9.65;;;6.40;;
63016;SDS011;50274;45.640;11.756;2023-06-10T07:36:28;11.10;;;7.03;;
63016;SDS011;50274;45.640;11.756;2023-06-10T07:38:54;9.82;;;7.13;;
63016;SDS011;50274;45.640;11.756;2023-06-10T07:41:22;8.85;;;6.15;;
63016;SDS011;50274;45.640;11.756;2023-06-10T07:43:50;9.20;;;6.13;;
63016;SDS011;50274;45.640;11.756;2023-06-10T07:46:20;7.97;;;5.23;;
63016;SDS011;50274;45.640;11.756;2023-06-10T07:48:46;8.45;;;5.70;;
63016;SDS011;50274;45.640;11.756;2023-06-10T07:51:13;8.75;;;6.70;;
63016;SDS011;50274;45.640;11.756;2023-06-10T07:53:38;10.80;;;6.80;;
63016;SDS011;50274;45.640;11.756;2023-06-10T07:56:04;10.80;;;5.70;;
63016;SDS011;50274;45.640;11.756;2023-06-10T07:58:30;13.35;;;5.80;;
63016;SDS011;50274;45.640;11.756;2023-06-10T08:00:56;8.73;;;6.10;;
63016;SDS011;50274;45.640;11.756;2023-06-10T08:03:22;9.50;;;6.23;;
63016;SDS011;50274;45.640;11.756;2023-06-10T08:05:48;8.18;;;5.25;;
63016;SDS011;50274;45.640;11.756;2023-06-10T08:08:14;7.43;;;4.82;;
63016;SDS011;50274;45.640;11.756;2023-06-10T08:10:40;7.93;;;5.00;;
63016;SDS011;50274;45.640;11.756;2023-06-10T08:13:07;9.15;;;5.18;;
63016;SDS011;50274;45.640;11.756;2023-06-10T08:15:33;12.27;;;8.73;;
63016;SDS011;50274;45.640;11.756;2023-06-10T08:17:58;11.83;;;7.83;;
63016;SDS011;50274;45.640;11.756;2023-06-10T08:20:25;12.55;;;9.27;;
63016;SDS011;50274;45.640;11.756;2023-06-10T08:22:51;13.35;;;8.93;;
63016;SDS011;50274;45.640;11.756;2023-06-10T08:25:17;12.17;;;9.10;;
63016;SDS011;50274;45.640;11.756;2023-06-10T08:27:43;13.93;;;9.67;;
63016;SDS011;50274;45.640;11.756;2023-06-10T08:30:09;11.80;;;8.73;;
63016;SDS011;50274;45.640;11.756;2023-06-10T08:32:36;17.77;;;13.07;;
63016;SDS011;50274;45.640;11.756;2023-06-10T08:35:02;14.82;;;11.02;;
63016;SDS011;50274;45.640;11.756;2023-06-10T08:37:28;15.83;;;11.40;;
63016;SDS011;50274;45.640;11.756;2023-06-10T08:39:54;13.25;;;10.15;;
63016;SDS011;50274;45.640;11.756;2023-06-10T08:44:55;15.60;;;10.13;;
63016;SDS011;50274;45.640;11.756;2023-06-10T08:47:22;15.07;;;12.27;;
63016;SDS011;50274;45.640;11.756;2023-06-10T08:49:49;20.67;;;14.02;;
63016;SDS011;50274;45.640;11.756;2023-06-10T08:52:18;16.73;;;13.55;;
63016;SDS011;50274;45.640;11.756;2023-06-10T08:54:59;23.67;;;14.73;;
63016;SDS011;50274;45.640;11.756;2023-06-10T08:57:28;17.15;;;12.65;;
63016;SDS011;50274;45.640;11.756;2023-06-10T08:59:56;15.13;;;12.00;;
63016;SDS011;50274;45.640;11.756;2023-06-10T09:02:23;16.58;;;12.73;;
63016;SDS011;50274;45.640;11.756;2023-06-10T09:04:50;17.52;;;13.23;;
63016;SDS011;50274;45.640;11.756;2023-06-10T09:07:16;18.58;;;14.77;;
63016;SDS011;50274;45.640;11.756;2023-06-10T09:09:43;17.42;;;13.73;;
63016;SDS011;50274;45.640;11.756;2023-06-10T09:12:10;19.23;;;14.70;;
63016;SDS011;50274;45.640;11.756;2023-06-10T09:14:37;14.25;;;11.45;;
63016;SDS011;50274;45.640;11.756;2023-06-10T09:17:03;22.50;;;14.52;;
63016;SDS011;50274;45.640;11.756;2023-06-10T09:19:30;16.63;;;13.45;;
63016;SDS011;50274;45.640;11.756;2023-06-10T09:22:05;20.60;;;14.45;;
63016;SDS011;50274;45.640;11.756;2023-06-10T09:24:43;18.60;;;13.50;;
63016;SDS011;50274;45.640;11.756;2023-06-10T09:27:09;15.95;;;11.30;;
63016;SDS011;50274;45.640;11.756;2023-06-10T09:29:48;17.05;;;12.85;;
63016;SDS011;50274;45.640;11.756;2023-06-10T09:32:18;14.18;;;10.77;;
63016;SDS011;50274;45.640;11.756;2023-06-10T09:34:45;13.30;;;9.82;;
63016;SDS011;50274;45.640;11.756;2023-06-10T09:37:12;12.57;;;9.80;;
63016;SDS011;50274;45.640;11.756;2023-06-10T09:39:41;13.13;;;9.65;;
63016;SDS011;50274;45.640;11.756;2023-06-10T09:42:16;13.18;;;9.00;;
63016;SDS011;50274;45.640;11.756;2023-06-10T09:44:48;13.77;;;8.68;;
63016;SDS011;50274;45.640;11.756;2023-06-10T09:47:21;39.28;;;11.73;;
63016;SDS011;50274;45.640;11.756;2023-06-10T09:49:50;25.80;;;9.70;;
63016;SDS011;50274;45.640;11.756;2023-06-10T09:52:23;23.85;;;10.15;;
63016;SDS011;50274;45.640;11.756;2023-06-10T09:54:54;15.23;;;9.43;;
63016;SDS011;50274;45.640;11.756;2023-06-10T09:57:24;10.40;;;7.15;;
63016;SDS011;50274;45.640;11.756;2023-06-10T09:59:53;11.70;;;8.15;;
63016;SDS011;50274;45.640;11.756;2023-06-10T10:02:20;13.87;;;9.63;;
63016;SDS011;50274;45.640;11.756;2023-06-10T10:04:46;15.13;;;10.20;;
63016;SDS011;50274;45.640;11.756;2023-06-10T10:07:12;21.05;;;9.85;;
63016;SDS011;50274;45.640;11.756;2023-06-10T10:09:39;20.02;;;13.40;;
63016;SDS011;50274;45.640;11.756;2023-06-10T10:12:09;17.50;;;13.27;;
63016;SDS011;50274;45.640;11.756;2023-06-10T10:14:36;17.42;;;13.27;;
63016;SDS011;50274;45.640;11.756;2023-06-10T10:17:11;15.82;;;12.30;;
63016;SDS011;50274;45.640;11.756;2023-06-10T10:19:46;19.63;;;13.00;;
63016;SDS011;50274;45.640;11.756;2023-06-10T10:22:16;26.50;;;14.70;;
63016;SDS011;50274;45.640;11.756;2023-06-10T10:24:49;21.20;;;14.27;;
63016;SDS011;50274;45.640;11.756;2023-06-10T10:27:18;17.80;;;12.70;;
63016;SDS011;50274;45.640;11.756;2023-06-10T10:29:51;18.52;;;15.00;;
63016;SDS011;50274;45.640;11.756;2023-06-10T10:32:18;25.95;;;17.20;;
63016;SDS011;50274;45.640;11.756;2023-06-10T10:37:33;17.30;;;13.30;;
63016;SDS011;50274;45.640;11.756;2023-06-10T10:40:00;19.00;;;14.32;;
63016;SDS011;50274;45.640;11.756;2023-06-10T10:42:28;20.02;;;14.77;;
63016;SDS011;50274;45.640;11.756;2023-06-10T10:44:55;18.80;;;14.10;;
63016;SDS011;50274;45.640;11.756;2023-06-10T10:47:21;18.88;;;14.95;;
63016;SDS011;50274;45.640;11.756;2023-06-10T10:49:52;22.23;;;15.37;;
63016;SDS011;50274;45.640;11.756;2023-06-10T10:52:24;19.80;;;15.30;;
63016;SDS011;50274;45.640;11.756;2023-06-10T10:54:52;26.50;;;18.42;;
63016;SDS011;50274;45.640;11.756;2023-06-10T10:57:23;22.70;;;18.05;;
63016;SDS011;50274;45.640;11.756;2023-06-10T11:05:14;19.00;;;15.13;;
63016;SDS011;50274;45.640;11.756;2023-06-10T11:07:51;22.95;;;17.15;;
63016;SDS011;50274;45.640;11.756;2023-06-10T11:10:28;20.67;;;16.95;;
63016;SDS011;50274;45.640;11.756;2023-06-10T11:13:08;21.73;;;14.38;;
63016;SDS011;50274;45.640;11.756;2023-06-10T11:15:38;21.20;;;15.67;;
63016;SDS011;50274;45.640;11.756;2023-06-10T11:18:23;22.65;;;17.40;;
63016;SDS011;50274;45.640;11.756;2023-06-10T11:26:43;19.80;;;12.93;;
63016;SDS011;50274;45.640;11.756;2023-06-10T11:34:23;19.92;;;15.80;;
63016;SDS011;50274;45.640;11.756;2023-06-10T11:36:50;22.47;;;15.87;;
63016;SDS011;50274;45.640;11.756;2023-06-10T11:39:16;18.13;;;13.43;;
63016;SDS011;50274;45.640;11.756;2023-06-10T11:41:43;18.33;;;12.73;;
63016;SDS011;50274;45.640;11.756;2023-06-10T11:44:11;18.00;;;14.63;;
63016;SDS011;50274;45.640;11.756;2023-06-10T11:46:38;18.45;;;13.75;;
63016;SDS011;50274;45.640;11.756;2023-06-10T11:49:05;21.33;;;15.27;;
63016;SDS011;50274;45.640;11.756;2023-06-10T11:51:35;20.65;;;15.32;;
63016;SDS011;50274;45.640;11.756;2023-06-10T11:54:06;20.95;;;15.57;;
63016;SDS011;50274;45.640;11.756;2023-06-10T11:56:33;20.25;;;15.45;;
63016;SDS011;50274;45.640;11.756;2023-06-10T11:59:00;20.38;;;15.88;;
63016;SDS011;50274;45.640;11.756;2023-06-10T12:01:32;18.70;;;13.70;;
63016;SDS011;50274;45.640;11.756;2023-06-10T12:04:01;19.95;;;15.77;;
63016;SDS011;50274;45.640;11.756;2023-06-10T12:06:38;23.63;;;17.08;;
63016;SDS011;50274;45.640;11.756;2023-06-10T12:09:17;24.42;;;17.30;;
63016;SDS011;50274;45.640;11.756;2023-06-10T12:11:43;20.27;;;15.23;;
63016;SDS011;50274;45.640;11.756;2023-06-10T12:14:09;20.20;;;14.70;;
63016;SDS011;50274;45.640;11.756;2023-06-10T12:16:35;22.50;;;15.48;;
63016;SDS011;50274;45.640;11.756;2023-06-10T12:19:02;26.80;;;19.40;;
63016;SDS011;50274;45.640;11.756;2023-06-10T12:21:29;21.77;;;17.50;;
63016;SDS011;50274;45.640;11.756;2023-06-10T12:24:03;21.33;;;15.93;;
63016;SDS011;50274;45.640;11.756;2023-06-10T12:26:40;21.17;;;16.42;;
63016;SDS011;50274;45.640;11.756;2023-06-10T12:34:34;26.65;;;20.65;;
63016;SDS011;50274;45.640;11.756;2023-06-10T12:37:01;27.10;;;16.70;;
63016;SDS011;50274;45.640;11.756;2023-06-10T12:39:41;21.88;;;17.50;;
63016;SDS011;50274;45.640;11.756;2023-06-10T12:42:17;21.13;;;15.80;;
63016;SDS011;50274;45.640;11.756;2023-06-10T12:44:47;21.98;;;16.73;;
63016;SDS011;50274;45.640;11.756;2023-06-10T12:47:19;24.33;;;18.70;;
63016;SDS011;50274;45.640;11.756;2023-06-10T12:49:45;20.63;;;15.70;;
63016;SDS011;50274;45.640;11.756;2023-06-10T12:52:11;21.60;;;16.20;;
63016;SDS011;50274;45.640;11.756;2023-06-10T12:54:37;17.07;;;12.73;;
63016;SDS011;50274;45.640;11.756;2023-06-10T12:57:03;21.27;;;15.85;;
63016;SDS011;50274;45.640;11.756;2023-06-10T12:59:29;18.95;;;14.52;;
63016;SDS011;50274;45.640;11.756;2023-06-10T13:01:57;26.50;;;18.67;;
63016;SDS011;50274;45.640;11.756;2023-06-10T13:04:23;19.57;;;14.93;;
63016;SDS011;50274;45.640;11.756;2023-06-10T13:06:48;26.10;;;19.75;;
63016;SDS011;50274;45.640;11.756;2023-06-10T13:09:14;23.65;;;16.95;;
63016;SDS011;50274;45.640;11.756;2023-06-10T13:11:41;20.17;;;14.37;;
63016;SDS011;50274;45.640;11.756;2023-06-10T13:14:08;21.95;;;14.35;;
63016;SDS011;50274;45.640;11.756;2023-06-10T13:16:35;21.80;;;14.35;;
63016;SDS011;50274;45.640;11.756;2023-06-10T13:19:03;17.45;;;11.15;;
63016;SDS011;50274;45.640;11.756;2023-06-10T13:21:30;11.73;;;8.20;;
63016;SDS011;50274;45.640;11.756;2023-06-10T13:23:59;11.80;;;7.10;;
63016;SDS011;50274;45.640;11.756;2023-06-10T13:26:26;10.88;;;7.45;;
63016;SDS011;50274;45.640;11.756;2023-06-10T13:28:51;11.93;;;7.47;;
63016;SDS011;50274;45.640;11.756;2023-06-10T13:31:17;14.27;;;7.88;;
63016;SDS011;50274;45.640;11.756;2023-06-10T13:33:45;12.73;;;7.40;;
63016;SDS011;50274;45.640;11.756;2023-06-10T13:36:12;10.98;;;6.55;;
63016;SDS011;50274;45.640;11.756;2023-06-10T13:38:38;12.20;;;6.80;;
63016;SDS011;50274;45.640;11.756;2023-06-10T13:41:04;9.90;;;6.75;;
63016;SDS011;50274;45.640;11.756;2023-06-10T13:43:29;9.37;;;5.90;;
63016;SDS011;50274;45.640;11.756;2023-06-10T13:45:55;14.00;;;6.78;;
63016;SDS011;50274;45.640;11.756;2023-06-10T13:48:21;8.90;;;5.90;;
63016;SDS011;50274;45.640;11.756;2023-06-10T13:50:47;9.03;;;5.40;;
63016;SDS011;50274;45.640;11.756;2023-06-10T13:53:13;8.93;;;6.20;;
63016;SDS011;50274;45.640;11.756;2023-06-10T13:55:39;10.23;;;6.88;;
63016;SDS011;50274;45.640;11.756;2023-06-10T13:58:05;12.25;;;7.82;;
63016;SDS011;50274;45.640;11.756;2023-06-10T14:00:31;15.17;;;7.73;;
63016;SDS011;50274;45.640;11.756;2023-06-10T14:02:57;11.70;;;7.57;;
63016;SDS011;50274;45.640;11.756;2023-06-10T14:05:23;12.70;;;7.97;;
63016;SDS011;50274;45.640;11.756;2023-06-10T14:07:49;10.43;;;6.80;;
63016;SDS011;50274;45.640;11.756;2023-06-10T14:10:15;12.40;;;6.75;;
63016;SDS011;50274;45.640;11.756;2023-06-10T14:12:40;12.15;;;7.60;;
63016;SDS011;50274;45.640;11.756;2023-06-10T14:15:07;10.97;;;7.50;;
63016;SDS011;50274;45.640;11.756;2023-06-10T14:17:33;10.27;;;6.47;;
63016;SDS011;50274;45.640;11.756;2023-06-10T14:19:58;12.90;;;8.05;;
63016;SDS011;50274;45.640;11.756;2023-06-10T14:22:24;11.63;;;7.20;;
63016;SDS011;50274;45.640;11.756;2023-06-10T14:24:50;11.90;;;7.70;;
63016;SDS011;50274;45.640;11.756;2023-06-10T14:27:16;12.05;;;7.97;;
63016;SDS011;50274;45.640;11.756;2023-06-10T14:29:42;12.53;;;8.60;;
63016;SDS011;50274;45.640;11.756;2023-06-10T14:32:08;14.35;;;8.75;;
63016;SDS011;50274;45.640;11.756;2023-06-10T14:34:34;13.10;;;8.55;;
63016;SDS011;50274;45.640;11.756;2023-06-10T14:37:00;11.53;;;8.00;;
63016;SDS011;50274;45.640;11.756;2023-06-10T14:39:28;12.60;;;7.20;;
63016;SDS011;50274;45.640;11.756;2023-06-10T14:41:54;10.30;;;6.72;;
63016;SDS011;50274;45.640;11.756;2023-06-10T14:44:19;10.57;;;7.60;;
63016;SDS011;50274;45.640;11.756;2023-06-10T14:46:45;12.05;;;6.75;;